Mariposa, CA

1:21 PM PDT on September 19, 2014 (GMT -0700)
Madera Municipal | Change Station
CLOSE
Current Station
Airport
Location: Madera,
Elevation: 253 ft
Nearby Weather Stations

Elev 253 ft 36.99 °N, 120.11 °W | Updated 28 minutes ago

Clear
Clear
84 °F
Feels Like 83 °F
N
10
Wind Variable Wind from NW

Today
High -- | Low -- °F
--% Chance of Precip.
Yesterday
High -- | Low -- °F
Precip. -- in
6:45 AM 7:01 PM
Waning Crescent, 17% visible
Pressure 29.86 in
Visibility 10.0 miles
Clouds Clear
Heat Index 83 °F
Dew Point 57 °F
Humidity 40%
Rainfall 0.00 in
Snow Depth 0 in , 0 in , 3 in
UV 8 out of 12
Pollen 5.90 out of 12
Air Quality Not available.
Flu Activity Not available.
METAR KMAE 191953Z AUTO 31009KT 10SM CLR 29/14 A2986 RMK AO2 SLP110 T02890139

More Conditions Fewer Conditions

Pressure 29.86 in
Visibility 10.0 miles
Clouds Clear
Heat Index 83 °F
Dew Point 57 °F
Humidity 40%
Rainfall 0.00 in
Snow Depth 0 in , 0 in , 3 in
UV 8 out of 12
Pollen 5.90 out of 12
Air Quality Not available.
Flu Activity Not available.
METAR KMAE 191953Z AUTO 31009KT 10SM CLR 29/14 A2986 RMK AO2 SLP110 T02890139

More Conditions Fewer Conditions

10-Day Weather Forecast

Almanac

Astronomy

Sep. 19, 2014 Rise Set
Actual Time 6:45 AM PDT 7:01 PM PDT
Civil Twilight 6:18 AM PDT 7:27 PM PDT
Nautical Twilight 5:48 AM PDT 7:57 PM PDT
Astronomical Twilight 5:17 AM PDT 8:28 PM PDT
Moon 2:38 AM PDT 4:29 PM PDT
Length of Visible Light 13h 08m
Length of Day
12h 16m
Tomorrow will be 2m 23s shorter.
Waning Crescent, 17% of the Moon is Illuminated
Today
Waning Crescent
Sep 24
New
Oct 1
First Quarter
Oct 8
Full
Oct 15
Last Quarter

Today's Extremes

State Highs State Lows

Community

WunderPhotos

Upload Photos

1,754,693 photos uploaded!

WunderBlogs® & News

By Dr. Jeff Masters
Director of Meteorology, Weather Underground
By Kari Strenfel
Meteorologist, Weather Underground
By Christopher C. Burt
Weather Historian, Weather Underground
September 19, 2014
September 19, 2014
September 19, 2014

Nearby

Snow Depth

Station Depth Elevation
Burnside Lake 0 in 8139 ft
Adin Mountain 0 in 6200 ft
Leavitt Meadows 0 in 7200 ft
CSS Lab 3 in 6900 ft
Blue Lakes 0 in 8000 ft

Earthquake Activity

City Distance Mag. Time & Date
Gabbs, Nevada 142 miles 3.3 4:37 AM PDT
2014-09-19
Livermore, California 100 miles 2.6 3:37 AM PDT
2014-09-19
Corcoran, California 98 miles 3.0 3:59 PM PDT
2014-09-18
Minimum magnitude displayed is 2.5.

Coastal Water Temperatures

Place Temperature
No Stations Reporting

Nearby Weather Stations